createdAt,value
2019-02-14T00:00:36.243Z,82.60
2019-02-14T00:01:12.224Z,82.50
2019-02-14T00:01:48.907Z,82.60
2019-02-14T00:02:24.559Z,82.60
2019-02-14T00:03:00.453Z,82.60
2019-02-14T00:03:35.972Z,82.60
2019-02-14T00:04:11.515Z,82.50
2019-02-14T00:04:47.076Z,82.30
2019-02-14T00:05:23.612Z,82.40
2019-02-14T00:05:59.455Z,82.40
2019-02-14T00:06:35.071Z,82.40
2019-02-14T00:07:10.603Z,82.40
2019-02-14T00:15:33.181Z,81.80
2019-02-14T00:16:08.798Z,82.00
2019-02-14T00:16:45.534Z,81.90
2019-02-14T00:17:21.247Z,81.80
2019-02-14T00:17:56.838Z,82.10
2019-02-14T00:18:32.426Z,82.20
2019-02-14T00:19:08.089Z,82.30
2019-02-14T00:19:43.658Z,82.40
2019-02-14T00:20:19.592Z,82.50
2019-02-14T00:20:55.216Z,82.50
2019-02-14T00:21:31.062Z,82.50
2019-02-14T00:22:06.685Z,83.40
2019-02-14T00:22:42.273Z,82.30
2019-02-14T00:23:17.870Z,82.70
2019-02-14T00:23:53.404Z,82.20
2019-02-14T00:24:28.943Z,82.30
2019-02-14T00:25:05.187Z,82.20
2019-02-14T00:25:40.761Z,82.20
2019-02-14T00:26:17.296Z,82.00
2019-02-14T00:26:52.935Z,82.00
2019-02-14T00:27:28.526Z,81.70
2019-02-14T00:28:04.106Z,81.80
2019-02-14T00:28:39.939Z,81.80
2019-02-14T00:29:15.513Z,81.70
2019-02-14T00:29:51.100Z,81.40
2019-02-14T00:30:26.648Z,81.40
2019-02-14T00:31:02.233Z,81.50
2019-02-14T00:31:37.766Z,81.50
2019-02-14T00:32:13.300Z,81.50
2019-02-14T00:32:48.836Z,81.40
2019-02-14T00:33:24.465Z,81.30
2019-02-14T00:34:00.118Z,81.30
2019-02-14T00:34:35.928Z,81.20
2019-02-14T00:35:11.500Z,81.40
2019-02-14T00:35:48.166Z,81.40
2019-02-14T00:36:23.772Z,81.60
2019-02-14T00:36:59.357Z,81.50
2019-02-14T00:37:34.913Z,81.60
2019-02-14T00:38:10.730Z,81.70
2019-02-14T00:38:46.320Z,81.70
2019-02-14T00:39:21.882Z,82.00
2019-02-14T00:39:57.408Z,82.30
2019-02-14T00:40:32.952Z,82.20
2019-02-14T00:41:08.802Z,82.20
2019-02-14T00:41:44.367Z,82.40
2019-02-14T00:42:20.239Z,82.50
2019-02-14T00:42:55.807Z,82.60
2019-02-14T00:43:31.658Z,82.70
2019-02-14T00:44:07.216Z,82.90
2019-02-14T00:44:42.809Z,83.00
2019-02-14T00:45:18.655Z,83.20
2019-02-14T00:45:54.209Z,83.30
2019-02-14T00:46:29.758Z,83.60
2019-02-14T00:47:05.292Z,83.70
2019-02-14T00:47:41.292Z,83.70
2019-02-14T00:48:17.133Z,83.60
2019-02-14T00:48:52.681Z,83.80
2019-02-14T00:49:28.312Z,83.80
2019-02-14T00:50:04.073Z,84.00
2019-02-14T00:50:40.271Z,84.20
2019-02-14T00:51:15.842Z,84.30
2019-02-14T00:51:51.383Z,84.40
2019-02-14T00:52:27.234Z,84.30
2019-02-14T00:53:02.759Z,84.30
2019-02-14T00:53:38.294Z,83.80
2019-02-14T00:54:13.851Z,83.50
2019-02-14T00:54:49.383Z,83.60
2019-02-14T00:55:24.987Z,83.70
2019-02-14T00:56:00.815Z,83.50
2019-02-14T00:56:36.418Z,83.50
2019-02-14T00:57:11.973Z,83.60
2019-02-14T00:57:49.459Z,83.50
2019-02-14T00:58:24.998Z,83.50
2019-02-14T00:59:00.625Z,83.50
2019-02-14T00:59:36.154Z,83.60
2019-02-14T01:00:11.877Z,83.70
2019-02-14T01:00:47.420Z,83.80
2019-02-14T01:01:22.949Z,84.00
2019-02-14T01:01:58.493Z,84.00
2019-02-14T01:02:34.031Z,84.10
2019-02-14T01:03:10.166Z,84.20
2019-02-14T01:03:45.745Z,84.20
2019-02-14T01:04:21.299Z,84.20
2019-02-14T01:04:57.186Z,84.30
2019-02-14T01:05:33.848Z,84.40
2019-02-14T01:06:09.491Z,84.50
2019-02-14T01:06:45.096Z,84.60
2019-02-14T01:07:20.676Z,84.70
2019-02-14T01:07:56.215Z,84.70
2019-02-14T01:08:32.193Z,84.80
2019-02-14T01:09:08.016Z,85.00
2019-02-14T01:09:43.550Z,85.00
2019-02-14T01:10:19.181Z,85.20
2019-02-14T01:10:55.157Z,85.10
2019-02-14T01:11:30.702Z,85.20
2019-02-14T01:12:06.730Z,85.40
2019-02-14T01:12:42.275Z,85.40
2019-02-14T01:13:17.839Z,85.40
2019-02-14T01:13:53.366Z,85.60
2019-02-14T01:14:28.955Z,85.60
2019-02-14T01:15:06.075Z,85.60
2019-02-14T01:15:42.398Z,85.80
2019-02-14T01:16:18.039Z,85.80
2019-02-14T01:16:53.830Z,85.90
2019-02-14T01:17:29.443Z,86.00
2019-02-14T01:18:05.047Z,86.10
2019-02-14T01:18:40.586Z,86.10
2019-02-14T01:19:16.162Z,86.10
2019-02-14T01:19:51.699Z,86.10
2019-02-14T01:20:27.222Z,85.90
2019-02-14T01:21:02.849Z,85.80
2019-02-14T01:21:38.879Z,85.90
2019-02-14T01:22:14.406Z,85.80
2019-02-14T01:22:49.986Z,85.80
2019-02-14T01:23:25.535Z,85.80
2019-02-14T01:24:01.103Z,85.80
2019-02-14T01:24:36.733Z,85.80
2019-02-14T01:25:12.341Z,85.70
2019-02-14T01:25:47.978Z,85.80
2019-02-14T01:26:23.534Z,85.70
2019-02-14T01:26:59.074Z,85.60
2019-02-14T01:27:34.616Z,85.70
2019-02-14T01:28:10.234Z,85.60
2019-02-14T01:28:45.778Z,85.70
2019-02-14T01:29:21.320Z,85.80
2019-02-14T01:29:56.868Z,85.80
2019-02-14T01:30:32.404Z,85.70
2019-02-14T01:31:07.950Z,85.70
2019-02-14T01:31:43.533Z,85.70
2019-02-14T01:32:19.434Z,85.80
2019-02-14T01:32:54.967Z,86.00
2019-02-14T01:33:30.511Z,85.90
2019-02-14T01:34:06.123Z,85.90
2019-02-14T01:34:42.323Z,85.90
2019-02-14T01:35:18.293Z,85.90
2019-02-14T01:35:54.167Z,86.00
2019-02-14T01:36:30.020Z,85.90
2019-02-14T01:37:05.551Z,85.90
2019-02-14T01:37:41.178Z,85.90
2019-02-14T01:38:16.723Z,85.80
2019-02-14T01:38:52.246Z,85.80
2019-02-14T01:39:27.779Z,85.80
2019-02-14T01:40:03.382Z,85.80
2019-02-14T01:40:39.215Z,85.80
2019-02-14T01:41:14.777Z,85.80
2019-02-14T01:41:50.323Z,85.80
2019-02-14T01:42:26.368Z,85.80
2019-02-14T01:43:02.090Z,85.90
2019-02-14T01:43:37.606Z,86.00
2019-02-14T01:44:13.167Z,86.20
2019-02-14T01:44:48.727Z,86.30
2019-02-14T01:45:24.276Z,86.40
2019-02-14T01:45:59.814Z,86.50
2019-02-14T01:46:35.409Z,86.50
2019-02-14T01:47:10.983Z,86.60
2019-02-14T01:47:46.656Z,86.60
2019-02-14T01:48:22.462Z,86.60
2019-02-14T01:48:57.995Z,86.50
2019-02-14T01:49:33.839Z,86.60
2019-02-14T01:50:09.671Z,86.60
2019-02-14T01:50:45.572Z,86.70
2019-02-14T01:51:21.135Z,86.80
2019-02-14T01:51:56.723Z,86.80
2019-02-14T01:52:32.275Z,86.80
2019-02-14T01:53:07.886Z,86.80
2019-02-14T01:53:43.537Z,86.80
2019-02-14T01:54:19.114Z,86.90
2019-02-14T01:54:55.011Z,86.90
2019-02-14T01:55:30.555Z,86.90
2019-02-14T01:56:06.087Z,87.00
2019-02-14T01:56:42.026Z,87.00
2019-02-14T01:57:17.553Z,86.90
2019-02-14T01:57:53.459Z,87.00
2019-02-14T01:58:29.012Z,87.00
2019-02-14T01:59:04.589Z,87.10
2019-02-14T01:59:41.115Z,87.20
2019-02-14T02:00:17.966Z,87.30
2019-02-14T02:00:53.563Z,87.30
2019-02-14T02:01:29.151Z,87.30
2019-02-14T02:02:04.826Z,87.40
2019-02-14T02:02:40.350Z,87.40
2019-02-14T02:03:15.968Z,87.40
2019-02-14T02:03:51.613Z,87.40
2019-02-14T02:04:27.189Z,87.40
2019-02-14T02:05:03.039Z,87.40
2019-02-14T02:05:39.111Z,87.40
2019-02-14T02:06:14.705Z,87.50
2019-02-14T02:06:50.698Z,87.40
2019-02-14T02:07:26.290Z,87.50
2019-02-14T02:08:01.860Z,87.50
2019-02-14T02:08:37.471Z,87.50
2019-02-14T02:09:13.047Z,87.60
2019-02-14T02:09:48.917Z,87.60
2019-02-14T02:10:24.481Z,87.60
2019-02-14T02:11:00.314Z,87.70
2019-02-14T02:11:35.882Z,87.70
2019-02-14T02:12:11.505Z,87.80
2019-02-14T02:12:47.157Z,87.70
2019-02-14T02:13:22.675Z,87.80
2019-02-14T02:13:58.300Z,87.80
2019-02-14T02:14:34.181Z,87.80
2019-02-14T02:15:11.419Z,87.90
2019-02-14T02:15:46.970Z,87.90
2019-02-14T02:16:22.994Z,88.00
2019-02-14T02:16:58.529Z,87.80
2019-02-14T02:17:34.131Z,87.80
2019-02-14T02:18:09.761Z,87.80
2019-02-14T02:18:45.353Z,88.00
2019-02-14T02:19:22.211Z,88.00
2019-02-14T02:19:57.858Z,88.10
2019-02-14T02:20:33.677Z,88.10
2019-02-14T02:21:09.258Z,88.10
2019-02-14T02:21:45.202Z,88.60
2019-02-14T02:22:21.716Z,88.20
2019-02-14T02:22:57.294Z,88.10
2019-02-14T02:23:32.941Z,88.20
2019-02-14T02:24:08.819Z,88.20
2019-02-14T02:24:44.471Z,88.30
2019-02-14T02:25:20.026Z,89.00
2019-02-14T02:25:55.587Z,88.20
2019-02-14T02:26:31.904Z,88.30
2019-02-14T02:27:07.686Z,88.30
2019-02-14T02:27:43.225Z,88.30
2019-02-14T02:28:18.971Z,88.40
2019-02-14T02:28:54.903Z,88.20
2019-02-14T02:29:30.568Z,88.20
2019-02-14T02:30:08.157Z,88.20
2019-02-14T02:30:44.181Z,88.20
2019-02-14T02:31:19.731Z,88.10
2019-02-14T02:31:55.479Z,88.00
2019-02-14T02:32:31.051Z,88.00
2019-02-14T02:33:06.705Z,88.00
2019-02-14T02:33:43.090Z,88.00
2019-02-14T02:34:18.659Z,88.00
2019-02-14T02:34:54.261Z,88.00
2019-02-14T02:35:30.075Z,88.10
2019-02-14T02:36:05.618Z,88.20
2019-02-14T02:36:41.527Z,88.10
2019-02-14T02:37:17.182Z,88.20
2019-02-14T02:37:53.723Z,88.20
2019-02-14T02:38:29.284Z,88.10
2019-02-14T02:39:06.292Z,88.90
2019-02-14T02:39:42.205Z,88.10
2019-02-14T02:40:18.097Z,88.20
2019-02-14T02:40:53.631Z,88.20
2019-02-14T02:41:29.450Z,88.20
2019-02-14T02:42:05.242Z,88.20
2019-02-14T02:42:40.909Z,88.30
2019-02-14T02:43:16.810Z,88.30
2019-02-14T02:43:52.391Z,88.40
2019-02-14T02:44:28.307Z,88.50
2019-02-14T02:45:03.931Z,88.60
2019-02-14T02:45:39.797Z,88.60
2019-02-14T02:46:15.370Z,88.70
2019-02-14T02:46:50.930Z,88.70
2019-02-14T02:47:26.495Z,88.80
2019-02-14T02:48:02.152Z,88.80
2019-02-14T02:48:37.997Z,88.80
2019-02-14T02:49:13.544Z,88.80
2019-02-14T02:49:49.142Z,88.90
2019-02-14T02:50:24.688Z,88.90
2019-02-14T02:51:00.235Z,89.00
2019-02-14T02:51:36.200Z,89.00
2019-02-14T02:52:11.764Z,88.90
2019-02-14T02:52:47.309Z,89.00
2019-02-14T02:53:23.249Z,89.10
2019-02-14T02:53:58.847Z,89.00
2019-02-14T02:54:34.554Z,89.00
2019-02-14T02:55:10.199Z,88.90
2019-02-14T02:55:45.845Z,89.00
2019-02-14T02:56:21.459Z,88.90
2019-02-14T02:56:57.377Z,88.80
2019-02-14T02:57:33.132Z,88.90
2019-02-14T02:58:08.714Z,88.90
2019-02-14T02:58:44.284Z,88.80
2019-02-14T02:59:20.094Z,88.90
2019-02-14T02:59:55.670Z,88.80
2019-02-14T03:00:31.200Z,88.70
2019-02-14T03:01:07.222Z,88.60
2019-02-14T03:01:42.806Z,88.60
2019-02-14T03:02:18.364Z,88.70
2019-02-14T03:02:53.908Z,88.70
2019-02-14T03:03:29.463Z,88.80
2019-02-14T03:04:05.028Z,89.00
2019-02-14T03:04:40.642Z,88.80
2019-02-14T03:05:16.472Z,88.80
2019-02-14T03:05:53.538Z,88.90
2019-02-14T03:06:29.081Z,89.00
2019-02-14T03:07:05.249Z,88.90
2019-02-14T03:07:40.866Z,89.00
2019-02-14T03:08:16.479Z,89.00
2019-02-14T03:08:52.321Z,89.10
2019-02-14T03:09:27.980Z,89.00
2019-02-14T03:10:03.582Z,89.00
2019-02-14T03:10:39.117Z,89.00
2019-02-14T03:11:14.654Z,89.20
2019-02-14T03:11:50.438Z,88.90
2019-02-14T03:12:25.987Z,88.90
2019-02-14T03:13:02.333Z,88.80
2019-02-14T03:13:38.223Z,88.80
2019-02-14T03:14:13.757Z,88.80
2019-02-14T03:14:49.323Z,88.70
2019-02-14T03:15:24.963Z,88.80
2019-02-14T03:16:00.840Z,88.80
2019-02-14T03:16:36.443Z,88.80
2019-02-14T03:17:11.976Z,88.90
2019-02-14T03:17:47.760Z,89.00
2019-02-14T03:18:23.599Z,88.80
2019-02-14T03:18:59.649Z,89.10
2019-02-14T03:19:35.236Z,89.00
2019-02-14T03:20:11.303Z,88.90
2019-02-14T03:20:47.919Z,88.90
2019-02-14T03:21:23.465Z,88.90
2019-02-14T03:21:59.092Z,88.90
2019-02-14T03:22:34.664Z,88.90
2019-02-14T03:23:10.253Z,88.90
2019-02-14T03:23:45.791Z,88.90
2019-02-14T03:24:22.119Z,88.90
2019-02-14T03:24:57.690Z,88.90
2019-02-14T03:25:33.282Z,88.90
2019-02-14T03:26:08.869Z,89.00
2019-02-14T03:26:44.391Z,89.10
2019-02-14T03:27:19.910Z,89.10
2019-02-14T03:27:55.439Z,89.10
2019-02-14T03:28:32.430Z,89.20
2019-02-14T03:29:08.242Z,89.20
2019-02-14T03:29:43.770Z,89.30
2019-02-14T03:30:19.911Z,89.30
2019-02-14T03:30:55.517Z,89.30
2019-02-14T03:31:31.116Z,89.30
2019-02-14T03:32:07.062Z,89.30
2019-02-14T03:32:43.058Z,89.30
2019-02-14T03:33:18.584Z,89.40
2019-02-14T03:33:54.186Z,89.40
2019-02-14T03:34:29.726Z,89.40
2019-02-14T03:35:05.323Z,89.40
2019-02-14T03:35:40.881Z,89.50
2019-02-14T03:36:19.131Z,89.40
2019-02-14T03:36:55.013Z,89.40
2019-02-14T03:37:30.553Z,89.40
2019-02-14T03:38:06.310Z,89.50
2019-02-14T03:38:42.164Z,89.40
2019-02-14T03:39:17.731Z,89.40
2019-02-14T03:39:54.222Z,89.40
2019-02-14T03:40:29.751Z,89.50
2019-02-14T03:41:05.647Z,89.60
2019-02-14T03:41:41.196Z,89.60
2019-02-14T03:42:16.741Z,89.60
2019-02-14T03:42:54.068Z,89.60
2019-02-14T03:43:29.733Z,89.60
2019-02-14T03:44:05.255Z,89.40
2019-02-14T03:44:40.810Z,89.50
2019-02-14T03:45:16.758Z,90.10
2019-02-14T03:45:52.779Z,89.40
2019-02-14T03:46:28.614Z,89.40
2019-02-14T03:47:04.547Z,89.40
2019-02-14T03:47:40.446Z,89.50
2019-02-14T03:48:16.025Z,89.40
2019-02-14T03:48:51.569Z,89.30
2019-02-14T03:49:27.130Z,89.40
2019-02-14T03:50:02.699Z,89.40
2019-02-14T03:50:38.214Z,89.30
2019-02-14T03:51:13.730Z,89.30
2019-02-14T03:51:49.241Z,89.20
2019-02-14T03:52:24.779Z,89.20
2019-02-14T03:53:00.413Z,89.10
2019-02-14T03:53:36.238Z,89.80
2019-02-14T03:54:12.083Z,89.10
2019-02-14T03:54:47.653Z,89.20
2019-02-14T03:55:23.213Z,89.10
2019-02-14T03:55:58.779Z,89.00
2019-02-14T03:56:34.635Z,89.00
2019-02-14T03:57:10.184Z,89.00
2019-02-14T03:57:45.738Z,89.00
2019-02-14T03:58:21.267Z,88.90
2019-02-14T03:58:56.787Z,88.90
2019-02-14T03:59:32.336Z,88.90
2019-02-14T04:00:10.939Z,88.90
2019-02-14T04:00:46.450Z,89.00
2019-02-14T04:01:22.024Z,88.80
2019-02-14T04:01:57.673Z,89.00
2019-02-14T04:02:33.550Z,88.80
2019-02-14T04:03:09.079Z,89.00
2019-02-14T04:03:45.100Z,88.90
2019-02-14T04:04:20.623Z,89.00
2019-02-14T04:04:56.191Z,88.90
2019-02-14T04:05:31.724Z,89.00
2019-02-14T04:06:07.274Z,89.00
2019-02-14T04:06:43.353Z,89.10
2019-02-14T04:07:18.927Z,90.00
2019-02-14T04:07:54.499Z,89.20
2019-02-14T04:08:30.308Z,89.30
2019-02-14T04:09:07.694Z,89.30
2019-02-14T04:09:43.261Z,89.40
2019-02-14T04:10:19.190Z,89.40
2019-02-14T04:10:54.714Z,89.40
2019-02-14T04:11:30.530Z,89.40
2019-02-14T04:12:06.111Z,89.60
2019-02-14T04:12:41.630Z,89.70
2019-02-14T04:13:17.150Z,89.60
2019-02-14T04:13:52.717Z,89.70
2019-02-14T04:14:28.525Z,89.80
2019-02-14T04:15:04.143Z,89.80
2019-02-14T04:15:41.111Z,89.80
2019-02-14T04:16:16.698Z,89.90
2019-02-14T04:16:52.269Z,89.90
2019-02-14T04:17:28.134Z,90.00
2019-02-14T04:18:03.678Z,90.00
2019-02-14T04:18:40.490Z,90.00
2019-02-14T04:19:16.016Z,90.00
2019-02-14T04:19:51.563Z,90.00
2019-02-14T04:20:27.090Z,90.00
2019-02-14T04:21:02.712Z,90.00
2019-02-14T04:21:38.275Z,90.00
2019-02-14T04:22:13.811Z,90.00
2019-02-14T04:22:49.372Z,90.00
2019-02-14T04:23:24.937Z,90.00
2019-02-14T04:24:00.497Z,90.00
2019-02-14T04:24:36.086Z,90.00
2019-02-14T04:25:11.671Z,90.00
2019-02-14T04:25:47.526Z,90.00
2019-02-14T04:26:23.146Z,89.90
2019-02-14T04:26:58.729Z,89.90
2019-02-14T04:27:34.378Z,90.00
2019-02-14T04:28:09.905Z,90.00
2019-02-14T04:28:45.476Z,90.00
2019-02-14T04:29:21.043Z,90.00
2019-02-14T04:29:56.641Z,89.90
2019-02-14T04:30:32.510Z,90.00
2019-02-14T04:31:08.099Z,90.00
2019-02-14T04:31:43.707Z,90.00
2019-02-14T04:32:19.253Z,90.00
2019-02-14T04:32:54.780Z,90.00
2019-02-14T04:33:30.665Z,90.00
2019-02-14T04:34:06.263Z,90.00
2019-02-14T04:34:41.782Z,90.00
2019-02-14T04:35:17.328Z,90.00
2019-02-14T04:35:52.846Z,90.10
2019-02-14T04:36:35.741Z,90.00
2019-02-14T04:37:05.586Z,90.10
2019-02-14T04:37:41.159Z,90.10
2019-02-14T04:38:17.052Z,90.10
2019-02-14T04:38:52.575Z,90.10
2019-02-14T04:39:28.107Z,90.10
2019-02-14T04:40:04.129Z,90.10
2019-02-14T04:40:39.679Z,90.10
2019-02-14T04:41:15.268Z,90.20
2019-02-14T04:41:50.787Z,90.10
2019-02-14T04:42:26.438Z,90.10
2019-02-14T04:43:02.128Z,90.10
2019-02-14T04:43:37.715Z,90.10
2019-02-14T04:44:13.242Z,90.10
2019-02-14T04:44:49.069Z,90.00
2019-02-14T04:45:24.959Z,89.80
2019-02-14T04:46:00.598Z,90.00
2019-02-14T04:46:36.138Z,90.00
2019-02-14T04:47:12.183Z,90.00
2019-02-14T04:47:48.088Z,90.00
2019-02-14T04:48:23.649Z,90.00
2019-02-14T04:48:59.197Z,90.00
2019-02-14T04:49:34.821Z,90.00
2019-02-14T04:50:10.375Z,89.80
2019-02-14T04:50:45.947Z,90.00
2019-02-14T04:51:21.454Z,90.00
2019-02-14T04:51:57.320Z,90.00
2019-02-14T04:52:32.938Z,90.00
2019-02-14T04:53:08.526Z,90.00
2019-02-14T04:53:44.094Z,90.00
2019-02-14T04:54:19.619Z,90.00
2019-02-14T04:54:55.184Z,90.00
2019-02-14T04:55:31.370Z,90.00
2019-02-14T04:56:06.906Z,90.00
2019-02-14T04:56:42.451Z,90.00
2019-02-14T04:57:18.285Z,90.00
2019-02-14T04:57:53.848Z,90.00
2019-02-14T04:58:29.389Z,90.00
2019-02-14T04:59:04.975Z,90.00
2019-02-14T04:59:40.515Z,90.00
2019-02-14T05:00:16.077Z,90.00
2019-02-14T05:00:51.614Z,90.00
2019-02-14T05:01:27.135Z,90.00
2019-02-14T05:02:02.658Z,90.00
2019-02-14T05:02:38.475Z,90.00
2019-02-14T05:03:15.658Z,90.00
2019-02-14T05:03:51.526Z,90.00
2019-02-14T05:04:27.058Z,90.00
2019-02-14T05:05:02.622Z,90.00
2019-02-14T05:05:39.235Z,90.10
2019-02-14T05:06:14.897Z,90.20
2019-02-14T05:06:50.486Z,90.20
2019-02-14T05:07:26.053Z,90.20
2019-02-14T05:08:01.613Z,90.20
2019-02-14T05:08:37.186Z,90.30
2019-02-14T05:09:12.722Z,90.30
2019-02-14T05:09:48.477Z,90.30
2019-02-14T05:10:24.087Z,90.30
2019-02-14T05:10:59.683Z,90.30
2019-02-14T05:11:35.203Z,90.60
2019-02-14T05:12:10.717Z,90.40
2019-02-14T05:12:46.248Z,90.40
2019-02-14T05:13:21.791Z,90.40
2019-02-14T05:13:57.330Z,90.40
2019-02-14T05:14:32.898Z,90.40
2019-02-14T05:15:08.510Z,90.40
2019-02-14T05:15:44.037Z,90.50
2019-02-14T05:16:19.605Z,90.50
2019-02-14T05:16:55.172Z,90.50
2019-02-14T05:17:30.711Z,90.50
2019-02-14T05:18:06.659Z,90.50
2019-02-14T05:18:42.495Z,90.40
2019-02-14T05:19:19.099Z,90.50
2019-02-14T05:19:54.705Z,90.40
2019-02-14T05:20:30.310Z,90.50
2019-02-14T05:21:06.774Z,90.50
2019-02-14T05:21:42.405Z,90.40
2019-02-14T05:22:18.015Z,90.50
2019-02-14T05:22:53.514Z,90.50
2019-02-14T05:23:29.400Z,90.50
2019-02-14T05:24:05.026Z,90.50
2019-02-14T05:24:40.647Z,90.50
2019-02-14T05:25:16.546Z,90.50
2019-02-14T05:25:52.079Z,90.50
2019-02-14T05:26:27.598Z,90.40
2019-02-14T05:27:03.137Z,90.40
2019-02-14T05:27:38.694Z,90.50
2019-02-14T05:28:14.635Z,90.50
2019-02-14T05:29:08.244Z,90.50
2019-02-14T05:29:43.841Z,90.30
2019-02-14T05:30:19.362Z,90.50
2019-02-14T05:30:54.895Z,90.50
2019-02-14T05:31:30.399Z,90.50
2019-02-14T05:32:05.938Z,90.50
2019-02-14T05:32:41.541Z,90.50
2019-02-14T05:33:18.041Z,90.40
2019-02-14T05:33:53.594Z,90.40
2019-02-14T05:34:29.191Z,90.40
2019-02-14T05:35:04.997Z,90.40
2019-02-14T05:35:40.561Z,90.40
2019-02-14T05:36:16.077Z,90.40
2019-02-14T05:36:54.681Z,90.40
2019-02-14T05:37:28.877Z,90.60
2019-02-14T05:38:04.446Z,90.50
2019-02-14T05:38:39.973Z,90.50
2019-02-14T05:39:15.479Z,90.50
2019-02-14T05:39:50.995Z,90.50
2019-02-14T05:40:26.512Z,90.50
2019-02-14T05:41:02.212Z,90.50
2019-02-14T05:41:37.769Z,90.50
2019-02-14T05:42:13.298Z,90.60
2019-02-14T05:42:48.849Z,90.60
2019-02-14T05:43:24.442Z,90.60
2019-02-14T05:44:00.015Z,90.60
2019-02-14T05:44:35.588Z,90.60
2019-02-14T05:45:11.202Z,90.60
2019-02-14T05:45:48.815Z,90.90
2019-02-14T05:46:24.366Z,90.60
2019-02-14T05:47:00.050Z,90.70
2019-02-14T05:47:35.590Z,90.60
2019-02-14T05:48:11.561Z,90.60
2019-02-14T05:48:47.117Z,90.60
2019-02-14T05:49:22.927Z,90.60
2019-02-14T05:49:58.840Z,90.50
2019-02-14T05:50:34.354Z,90.60
2019-02-14T05:51:09.870Z,90.50
2019-02-14T05:51:45.405Z,90.50
2019-02-14T05:52:20.989Z,90.50
2019-02-14T05:52:56.503Z,90.50
2019-02-14T05:53:32.271Z,90.50
2019-02-14T05:54:08.132Z,90.40
2019-02-14T05:54:43.655Z,90.40
2019-02-14T05:55:19.524Z,90.50
2019-02-14T05:55:55.149Z,90.50
2019-02-14T05:56:30.705Z,90.50
2019-02-14T05:57:06.227Z,90.50
2019-02-14T05:57:41.749Z,90.50
2019-02-14T05:58:17.253Z,90.50
2019-02-14T05:58:52.867Z,90.50
2019-02-14T05:59:28.703Z,90.50
2019-02-14T06:00:04.829Z,90.50
2019-02-14T06:00:40.479Z,90.50
2019-02-14T06:01:18.131Z,90.60
2019-02-14T06:01:53.716Z,90.60
2019-02-14T06:02:29.488Z,90.70
2019-02-14T06:03:05.298Z,90.80
2019-02-14T06:03:40.822Z,90.90
2019-02-14T06:04:16.402Z,90.90
2019-02-14T06:04:51.943Z,91.00
2019-02-14T06:05:27.778Z,91.00
2019-02-14T06:06:03.311Z,91.00
2019-02-14T06:06:38.839Z,91.00
2019-02-14T06:07:14.656Z,91.00
2019-02-14T06:07:51.292Z,91.00
2019-02-14T06:08:27.135Z,91.00
2019-02-14T06:09:03.341Z,91.00
2019-02-14T06:09:38.854Z,91.00
2019-02-14T06:10:14.699Z,91.00
2019-02-14T06:10:50.219Z,91.00
2019-02-14T06:11:25.971Z,91.00
2019-02-14T06:12:01.562Z,91.10
2019-02-14T06:12:37.125Z,91.00
2019-02-14T06:13:12.948Z,90.90
2019-02-14T06:13:48.561Z,90.90
2019-02-14T06:14:24.065Z,90.80
2019-02-14T06:14:59.965Z,90.80
2019-02-14T06:15:35.494Z,90.80
2019-02-14T06:16:11.990Z,90.90
2019-02-14T06:16:47.996Z,90.80
2019-02-14T06:17:23.544Z,90.80
2019-02-14T06:17:59.049Z,90.80
2019-02-14T06:18:34.754Z,90.70
2019-02-14T06:19:10.281Z,90.70
2019-02-14T06:19:45.806Z,90.70
2019-02-14T06:20:21.323Z,90.60
2019-02-14T06:20:56.865Z,90.70
2019-02-14T06:21:32.431Z,90.60
2019-02-14T06:22:08.005Z,90.60
2019-02-14T06:22:43.574Z,90.60
2019-02-14T06:23:19.091Z,90.60
2019-02-14T06:23:54.605Z,90.60
2019-02-14T06:24:30.123Z,90.60
2019-02-14T06:25:05.886Z,90.70
2019-02-14T06:25:41.421Z,90.60
2019-02-14T06:26:16.952Z,90.60
2019-02-14T06:26:52.499Z,90.60
2019-02-14T06:27:28.073Z,90.60
2019-02-14T06:28:03.678Z,90.60
2019-02-14T06:28:39.178Z,90.60
2019-02-14T06:29:14.747Z,90.60
2019-02-14T06:29:50.302Z,90.60
2019-02-14T06:30:25.839Z,90.60
2019-02-14T06:31:01.509Z,90.60
2019-02-14T06:31:37.011Z,90.90
2019-02-14T06:32:12.539Z,90.60
2019-02-14T06:32:48.081Z,90.60
2019-02-14T06:33:23.664Z,90.90
2019-02-14T06:33:59.462Z,90.50
2019-02-14T06:34:35.089Z,90.50
2019-02-14T06:35:11.019Z,90.50
2019-02-14T06:35:46.573Z,90.50
2019-02-14T06:36:22.094Z,90.50
2019-02-14T06:36:57.642Z,90.60
2019-02-14T06:37:33.176Z,90.50
2019-02-14T06:38:08.712Z,90.50
2019-02-14T06:38:44.338Z,90.50
2019-02-14T06:39:20.230Z,90.50
2019-02-14T06:39:55.800Z,90.50
2019-02-14T06:40:31.314Z,90.50
2019-02-14T06:41:06.885Z,90.50
2019-02-14T06:41:42.426Z,90.50
2019-02-14T06:42:18.198Z,90.50
2019-02-14T06:42:53.799Z,90.50
2019-02-14T06:43:29.670Z,90.60
2019-02-14T06:44:05.533Z,90.50
2019-02-14T06:44:41.353Z,90.50
2019-02-14T06:45:16.922Z,90.50
2019-02-14T06:45:52.663Z,90.50
2019-02-14T06:46:28.565Z,90.50
2019-02-14T06:47:04.803Z,90.50
2019-02-14T06:47:40.428Z,90.50
2019-02-14T06:48:16.007Z,90.50
2019-02-14T06:48:51.558Z,90.50
2019-02-14T06:49:27.076Z,90.50
2019-02-14T06:50:02.640Z,90.50
2019-02-14T06:50:38.219Z,90.50
2019-02-14T06:51:13.745Z,90.50
2019-02-14T06:51:49.264Z,90.50
2019-02-14T06:52:25.038Z,90.50
2019-02-14T06:53:00.926Z,90.80
2019-02-14T06:53:36.849Z,90.50
2019-02-14T06:54:12.396Z,90.50
2019-02-14T06:54:47.929Z,90.50
2019-02-14T06:55:23.814Z,90.50
2019-02-14T06:55:59.381Z,90.50
2019-02-14T06:56:35.503Z,90.50
2019-02-14T06:57:11.023Z,90.50
2019-02-14T06:57:46.553Z,90.50
2019-02-14T06:58:22.075Z,90.50
2019-02-14T06:58:57.590Z,90.60
2019-02-14T06:59:33.237Z,90.50
2019-02-14T07:00:10.691Z,90.50
2019-02-14T07:00:46.216Z,90.50
2019-02-14T07:01:21.730Z,90.50
2019-02-14T07:01:57.422Z,90.50
2019-02-14T07:02:32.944Z,90.50
2019-02-14T07:03:08.464Z,90.50
2019-02-14T07:03:44.089Z,90.50
2019-02-14T07:04:19.598Z,90.50
2019-02-14T07:04:55.195Z,90.50
2019-02-14T07:05:30.745Z,90.50
2019-02-14T07:06:06.262Z,90.50
2019-02-14T07:06:42.103Z,90.60
2019-02-14T07:07:18.865Z,90.50
2019-02-14T07:07:54.650Z,90.50
2019-02-14T07:08:30.804Z,90.50
2019-02-14T07:09:06.392Z,90.50
2019-02-14T07:09:42.197Z,90.80
2019-02-14T07:10:17.963Z,90.50
2019-02-14T07:10:53.469Z,90.50
2019-02-14T07:11:28.983Z,90.50
2019-02-14T07:12:04.743Z,90.50
2019-02-14T07:12:40.325Z,90.60
2019-02-14T07:13:15.838Z,90.60
2019-02-14T07:13:51.661Z,90.60
2019-02-14T07:14:27.176Z,90.60
2019-02-14T07:15:02.994Z,90.60
2019-02-14T07:15:39.835Z,90.50
2019-02-14T07:16:15.346Z,90.60
2019-02-14T07:16:50.876Z,90.60
2019-02-14T07:17:26.453Z,90.60
2019-02-14T07:18:02.099Z,90.60
2019-02-14T07:18:37.602Z,90.60
2019-02-14T07:19:13.156Z,90.70
2019-02-14T07:19:48.662Z,90.80
2019-02-14T07:20:24.185Z,90.90
2019-02-14T07:20:59.878Z,90.90
2019-02-14T07:21:35.401Z,90.90
2019-02-14T07:22:10.906Z,90.90
2019-02-14T07:22:46.432Z,90.90
2019-02-14T07:23:21.986Z,90.90
2019-02-14T07:23:57.490Z,91.00
2019-02-14T07:24:33.987Z,90.90
2019-02-14T07:25:10.016Z,90.90
2019-02-14T07:25:45.524Z,90.90
2019-02-14T07:26:21.306Z,90.90
2019-02-14T07:26:56.835Z,90.90
2019-02-14T07:27:32.630Z,90.90
2019-02-14T07:28:08.650Z,90.90
2019-02-14T07:28:44.219Z,90.90
2019-02-14T07:29:20.005Z,90.90
2019-02-14T07:29:56.031Z,90.90
2019-02-14T07:30:31.558Z,90.90
2019-02-14T07:31:07.235Z,90.90
2019-02-14T07:31:43.358Z,90.90
2019-02-14T07:32:18.913Z,90.90
2019-02-14T07:32:54.696Z,90.90
2019-02-14T07:33:30.215Z,91.00
2019-02-14T07:34:05.750Z,91.00
2019-02-14T07:34:41.266Z,91.00
2019-02-14T07:35:16.814Z,91.00
2019-02-14T07:35:52.347Z,91.00
2019-02-14T07:36:28.838Z,91.00
2019-02-14T07:37:05.336Z,91.00
2019-02-14T07:37:40.858Z,91.00
2019-02-14T07:38:16.410Z,91.00
2019-02-14T07:38:51.966Z,91.00
2019-02-14T07:39:27.533Z,91.00
2019-02-14T07:40:03.048Z,91.00
2019-02-14T07:40:38.576Z,91.00
2019-02-14T07:41:14.094Z,91.00
2019-02-14T07:41:49.606Z,91.00
2019-02-14T07:42:25.165Z,91.00
2019-02-14T07:43:00.772Z,91.00
2019-02-14T07:43:36.314Z,91.00
2019-02-14T07:44:11.826Z,91.00
2019-02-14T07:44:47.633Z,91.00
2019-02-14T07:45:24.275Z,91.00
2019-02-14T07:46:00.199Z,91.10
2019-02-14T07:46:35.736Z,91.10
2019-02-14T07:47:11.298Z,91.10
2019-02-14T07:47:47.863Z,91.10
2019-02-14T07:48:23.389Z,91.10